KPIM/PIM METAR and TAF weather

Enter ICAO airport designator
Station Type Date Time Source
KPIM METAR 2020/07/15 06:55 UTC NOAA

KPIM 150655Z AUTO 18003KT 10SM OVC080 25/22 A3004 RMK AO2 T02480215


Station Type Date Time Source
KPIM Decoded METAR 2020/07/15 06:55 UTC NOAA

Station name not available
Jul 15, 2020 - 02:55 AM EDT / 2020.07.15 0655 UTC
Wind: from the S (180 degrees) at 3 MPH (3 KT):0
Visibility: 10 mile(s):0
Sky conditions: overcast
Temperature: 76.6 F (24.8 C)
Dew Point: 70.7 F (21.5 C)
Relative Humidity: 81%
Pressure (altimeter): 30.04 in. Hg (1017 hPa)
ob: KPIM 150655Z AUTO 18003KT 10SM OVC080 25/22 A3004 RMK AO2 T02480215
cycle: 7

Station Type Date Time Source
KPIM TAF UTC NOAA

Error!

Example: see airport list